Time;durP1;ratioP1;P1;durP2;ratioP2;P2;SDS_P1;SDS_P2;PMS_P1;PMS_P2;Temp;Humidity;BMP_temperature;BMP_pressure;BME280_temperature;BME280_humidity;BME280_pressure;Samples;Min_cycle;Max_cycle;Signal;HPM_P1;HPM_P2
2023/03/28 07:14:06;;;;;;;;;;;;;;;15.97;28.17;97847.63;5027673;28;20008;-88
2023/03/28 07:16:32;;;;;;;;;;;;;;;15.47;32.12;97852.00;5055820;28;20280;-86
2023/03/28 07:18:58;;;;;;;;;;;;;;;16.70;26.17;97846.47;5054356;28;20005;-86
2023/03/28 07:21:24;;;;;;;;;;;;;;;15.91;29.02;97857.50;5040417;28;20015;-87
2023/03/28 07:23:50;;;;;;;;;;;;;;;16.31;27.86;97851.03;5053181;28;19929;-87
2023/03/28 07:26:16;;;;;;;;;;;;;;;16.37;27.47;97849.44;5052881;28;19970;-86
2023/03/28 07:28:42;;;;;;;;;;;;;;;16.95;28.08;97854.88;5049536;28;20031;-87
2023/03/28 07:31:09;;;;;;;;;;;;;;;16.30;31.57;97855.75;5053911;28;19982;-86
2023/03/28 07:33:35;;;;;;;;;;;;;;;16.09;30.91;97857.59;5067950;28;19920;-86
2023/03/28 07:36:13;;;;;;;;;;;;;;;15.93;31.23;97873.69;5049387;28;20347;-86
2023/03/28 07:38:39;;;;;;;;;;;;;;;13.93;34.08;97870.19;5051348;28;19924;-86
2023/03/28 07:41:06;;;;;;;;;;;;;;;15.18;30.13;97873.03;5052432;28;19975;-87
2023/03/28 07:43:32;;;;;;;;;;;;;;;15.95;30.19;97874.09;5052962;28;19924;-87
2023/03/28 07:45:59;;;;;;;;;;;;;;;16.24;27.96;97867.59;5054151;28;20264;-87
2023/03/28 07:48:25;;;;;;;;;;;;;;;15.04;30.66;97883.94;5053022;28;19921;-86
2023/03/28 07:50:51;;;;;;;;;;;;;;;15.14;29.85;97883.25;5071873;28;20475;-86
2023/03/28 07:53:17;;;;;;;;;;;;;;;14.47;32.92;97873.34;5072739;28;20326;-86
2023/03/28 07:55:44;;;;;;;;;;;;;;;14.79;31.79;97891.16;5051740;28;19935;-86
2023/03/28 07:58:10;;;;;;;;;;;;;;;15.94;29.24;97878.84;5053619;28;19979;-87
2023/03/28 08:00:36;;;;;;;;;;;;;;;16.44;28.04;97878.00;5054276;28;20019;-87
2023/03/28 08:03:02;;;;;;;;;;;;;;;16.54;28.10;97882.03;5053626;28;20019;-86
2023/03/28 08:05:28;;;;;;;;;;;;;;;15.23;30.61;97885.72;5053253;28;19923;-86
2023/03/28 08:07:54;;;;;;;;;;;;;;;15.41;29.06;97894.97;5054453;28;19920;-86
2023/03/28 08:10:21;;;;;;;;;;;;;;;16.70;26.66;97896.38;5050991;28;19917;-86
2023/03/28 08:12:47;;;;;;;;;;;;;;;15.58;28.68;97913.75;5049545;28;19921;-87
2023/03/28 08:15:13;;;;;;;;;;;;;;;15.47;28.64;97912.88;5054105;28;19920;-86
2023/03/28 08:17:39;;;;;;;;;;;;;;;14.72;30.62;97923.41;5073681;28;20330;-87
2023/03/28 08:20:09;;;;;;;;;;;;;;;15.28;30.39;97923.28;5073145;28;19916;-87
2023/03/28 08:22:35;;;;;;;;;;;;;;;13.80;33.50;97941.34;5067576;28;19928;-87
2023/03/28 08:25:02;;;;;;;;;;;;;;;14.06;30.97;97935.84;5072939;28;19924;-87
2023/03/28 08:27:28;;;;;;;;;;;;;;;15.19;28.86;97943.72;5073504;28;19912;-86
2023/03/28 08:29:54;;;;;;;;;;;;;;;15.37;29.28;97949.47;5052458;28;19975;-86
2023/03/28 08:32:20;;;;;;;;;;;;;;;15.99;28.42;97944.94;5053536;28;19963;-86
2023/03/28 08:34:46;;;;;;;;;;;;;;;15.33;29.12;97945.88;5053114;28;19919;-87
2023/03/28 08:37:12;;;;;;;;;;;;;;;15.37;28.78;97946.72;5053327;28;19927;-86
2023/03/28 08:39:40;;;;;;;;;;;;;;;14.89;31.56;97958.78;5052090;28;19920;-87
2023/03/28 08:42:21;;;;;;;;;;;;;;;16.35;28.29;97951.56;5061834;28;19990;-86
2023/03/28 08:45:00;;;;;;;;;;;;;;;16.34;27.40;97949.94;5053236;28;19920;-86
2023/03/28 08:47:28;;;;;;;;;;;;;;;15.32;29.60;97952.56;5053255;28;19917;-87
2023/03/28 08:50:00;;;;;;;;;;;;;;;16.07;28.98;97956.88;5052481;28;19920;-87
2023/03/28 08:52:27;;;;;;;;;;;;;;;15.39;28.71;97951.84;5051620;28;19932;-88
2023/03/28 08:54:58;;;;;;;;;;;;;;;15.70;31.98;97965.25;5052928;28;20201;-88
2023/03/28 08:57:27;;;;;;;;;;;;;;;15.58;27.88;97965.53;5059959;28;20421;-87
2023/03/28 08:59:59;;;;;;;;;;;;;;;14.64;28.40;97975.00;5055749;28;19975;-87
2023/03/28 09:02:27;;;;;;;;;;;;;;;14.54;29.30;97975.66;5055963;28;19952;-87
2023/03/28 09:04:53;;;;;;;;;;;;;;;14.27;29.93;97988.66;5056867;28;19917;-87
2023/03/28 09:07:21;;;;;;;;;;;;;;;14.10;31.21;97980.88;5056906;28;19912;-87
2023/03/28 09:09:47;;;;;;;;;;;;;;;13.54;33.13;97996.44;5055541;28;20011;-87
2023/03/28 09:12:26;;;;;;;;;;;;;;;14.07;29.44;97998.16;5054949;28;20006;-86
2023/03/28 09:14:52;;;;;;;;;;;;;;;15.34;28.61;97997.25;5067366;28;19928;-87
2023/03/28 09:17:21;;;;;;;;;;;;;;;14.43;34.06;98000.38;5075934;28;19913;-86
2023/03/28 09:19:56;;;;;;;;;;;;;;;15.19;29.13;97999.03;5059615;28;20352;-87
2023/03/28 09:22:40;;;;;;;;;;;;;;;15.59;29.02;98001.09;5050073;28;19929;-86
2023/03/28 09:25:07;;;;;;;;;;;;;;;15.29;33.03;98013.38;5036676;28;19951;-87
2023/03/28 09:27:34;;;;;;;;;;;;;;;14.52;30.11;98014.72;5048094;28;19920;-87
2023/03/28 09:30:08;;;;;;;;;;;;;;;13.71;32.02;98042.88;5055966;28;19921;-86
2023/03/28 09:32:37;;;;;;;;;;;;;;;14.73;32.51;98050.16;5061806;28;19917;-86
2023/03/28 09:35:12;;;;;;;;;;;;;;;13.16;34.89;98044.91;5056368;28;19921;-86
2023/03/28 09:37:40;;;;;;;;;;;;;;;12.21;37.71;98080.44;5056806;28;19971;-86
2023/03/28 09:40:18;;;;;;;;;;;;;;;14.25;30.39;98050.94;5056686;28;19928;-87
2023/03/28 09:42:44;;;;;;;;;;;;;;;14.09;30.56;98053.81;5054524;28;19921;-87
2023/03/28 09:45:13;;;;;;;;;;;;;;;14.87;30.80;98055.06;5054082;28;19928;-86
2023/03/28 09:47:40;;;;;;;;;;;;;;;15.46;27.14;98043.25;5056672;28;19917;-87
2023/03/28 09:50:10;;;;;;;;;;;;;;;15.30;29.91;98035.13;5034898;28;20340;-87
2023/03/28 09:52:36;;;;;;;;;;;;;;;16.13;26.32;98043.97;5044118;28;19979;-86
2023/03/28 09:55:02;;;;;;;;;;;;;;;16.01;27.66;98058.88;5056255;28;20011;-86
2023/03/28 09:57:48;;;;;;;;;;;;;;;15.76;29.78;98049.53;5056280;28;19917;-86
2023/03/28 10:00:21;;;;;;;;;;;;;;;15.23;27.67;98063.50;5055898;28;19994;-87
2023/03/28 10:02:50;;;;;;;;;;;;;;;14.77;31.00;98064.03;5055147;28;19921;-87
2023/03/28 10:05:31;;;;;;;;;;;;;;;14.70;31.42;98061.97;5056071;28;19927;-86
2023/03/28 10:07:57;;;;;;;;;;;;;;;15.61;30.18;98067.16;5035967;28;20130;-86
2023/03/28 10:10:23;;;;;;;;;;;;;;;16.20;29.65;98080.84;5036001;28;19917;-87
2023/03/28 10:12:54;;;;;;;;;;;;;;;12.72;38.88;98076.56;5039711;28;19925;-85
2023/03/28 10:15:31;;;;;;;;;;;;;;;12.71;36.10;98094.28;5039647;28;19917;-84
2023/03/28 10:18:01;;;;;;;;;;;;;;;11.24;36.32;98113.91;5052879;28;20070;-85
2023/03/28 10:20:31;;;;;;;;;;;;;;;10.25;38.63;98127.25;5054167;28;19921;-86
2023/03/28 10:22:58;;;;;;;;;;;;;;;10.13;40.39;98105.28;5055460;28;19959;-85
2023/03/28 10:25:38;;;;;;;;;;;;;;;10.41;39.89;98113.66;5055296;28;19962;-85
2023/03/28 10:28:05;;;;;;;;;;;;;;;12.04;35.01;98109.09;5055493;28;20367;-86
2023/03/28 10:30:33;;;;;;;;;;;;;;;12.55;33.98;98107.28;5055311;28;19917;-88
2023/03/28 10:33:11;;;;;;;;;;;;;;;13.09;34.92;98110.13;5054164;28;20019;-88
2023/03/28 10:35:40;;;;;;;;;;;;;;;15.93;28.63;98106.25;5055881;28;19917;-88
2023/03/28 10:38:14;;;;;;;;;;;;;;;17.00;24.58;98088.25;5054837;28;19925;-87
2023/03/28 10:40:40;;;;;;;;;;;;;;;17.71;25.66;98099.75;5072479;28;20014;-87
2023/03/28 10:43:12;;;;;;;;;;;;;;;16.74;27.05;98107.84;5065203;28;19960;-86
2023/03/28 10:45:40;;;;;;;;;;;;;;;17.52;25.72;98100.88;5055033;28;19923;-86
2023/03/28 10:48:15;;;;;;;;;;;;;;;17.92;21.90;98092.28;5053515;28;19923;-86
2023/03/28 10:50:41;;;;;;;;;;;;;;;16.53;29.83;98107.69;5054733;28;20291;-87
2023/03/28 10:53:26;;;;;;;;;;;;;;;15.53;24.09;98101.44;5053776;28;19928;-87
2023/03/28 10:56:00;;;;;;;;;;;;;;;15.36;26.73;98113.03;5053967;28;19944;-86
2023/03/28 10:58:32;;;;;;;;;;;;;;;17.15;22.45;98111.34;5074766;28;19916;-86
2023/03/28 11:01:11;;;;;;;;;;;;;;;16.22;24.86;98120.03;5074857;28;19963;-86
2023/03/28 11:03:50;;;;;;;;;;;;;;;15.00;27.46;98115.31;5053780;28;19921;-86
2023/03/28 11:06:20;;;;;;;;;;;;;;;15.56;27.79;98128.38;5054652;28;19924;-86
2023/03/28 11:09:15;;;;;;;;;;;;;;;16.27;27.06;98133.53;5054845;28;19917;-86
2023/03/28 11:11:56;;;;;;;;;;;;;;;17.02;26.62;98121.13;5029887;28;20015;-86
2023/03/28 11:14:27;;;;;;;;;;;;;;;17.76;27.06;98110.50;5058788;28;19979;-87
2023/03/28 11:17:01;;;;;;;;;;;;;;;17.01;25.63;98117.56;5051420;28;19916;-87
2023/03/28 11:19:33;;;;;;;;;;;;;;;14.03;30.73;98124.28;5074538;28;19924;-87
2023/03/28 11:22:17;;;;;;;;;;;;;;;12.42;38.37;98169.06;5068625;28;19921;-87
2023/03/28 11:25:04;;;;;;;;;;;;;;;11.61;37.84;98172.31;5054200;28;20023;-85
2023/03/28 11:27:37;;;;;;;;;;;;;;;13.53;29.61;98141.81;5053975;28;19975;-87
2023/03/28 11:30:13;;;;;;;;;;;;;;;13.51;33.56;98141.38;5058286;28;19917;-86
2023/03/28 11:32:43;;;;;;;;;;;;;;;14.38;33.64;98121.41;5063254;28;19921;-86
2023/03/28 11:35:12;;;;;;;;;;;;;;;14.11;29.38;98144.53;5036460;28;19920;-86
2023/03/28 11:37:41;;;;;;;;;;;;;;;13.97;32.50;98131.28;5054159;28;19917;-86
2023/03/28 11:40:27;;;;;;;;;;;;;;;13.34;37.32;98141.81;5054093;28;19917;-86
2023/03/28 11:42:59;;;;;;;;;;;;;;;15.01;29.76;98124.38;5051522;28;20364;-86
2023/03/28 11:45:36;;;;;;;;;;;;;;;14.59;32.03;98123.72;5054209;28;19971;-86
2023/03/28 11:48:05;;;;;;;;;;;;;;;14.54;29.19;98142.19;5065807;28;20326;-85
2023/03/28 11:50:45;;;;;;;;;;;;;;;14.92;26.61;98132.16;5068622;28;19928;-86
2023/03/28 11:53:25;;;;;;;;;;;;;;;15.84;29.84;98143.38;5047724;28;19927;-85
2023/03/28 11:55:57;;;;;;;;;;;;;;;15.27;29.77;98138.22;5052922;28;19952;-85
2023/03/28 11:58:24;;;;;;;;;;;;;;;16.86;26.67;98142.81;5053964;28;19921;-85
2023/03/28 12:00:58;;;;;;;;;;;;;;;16.66;24.17;98135.91;5047814;28;20402;-84
2023/03/28 12:03:29;;;;;;;;;;;;;;;15.47;32.18;98145.25;5049808;28;19921;-84
2023/03/28 12:05:58;;;;;;;;;;;;;;;15.18;30.05;98140.44;5056950;28;19921;-84
2023/03/28 12:08:31;;;;;;;;;;;;;;;15.83;26.54;98141.75;5065905;28;19982;-84
2023/03/28 12:11:02;;;;;;;;;;;;;;;17.06;26.27;98128.28;5049942;28;19921;-85
2023/03/28 12:13:31;;;;;;;;;;;;;;;16.36;27.02;98136.00;5052757;28;19917;-84
2023/03/28 12:16:03;;;;;;;;;;;;;;;17.29;28.47;98134.41;5056608;28;20383;-84
2023/03/28 12:18:32;;;;;;;;;;;;;;;15.80;27.26;98145.28;5031475;28;20345;-84
2023/03/28 12:21:04;;;;;;;;;;;;;;;15.75;27.59;98134.53;5056236;28;19920;-84
2023/03/28 12:23:39;;;;;;;;;;;;;;;15.27;29.97;98148.47;5072054;28;19921;-84
2023/03/28 12:26:29;;;;;;;;;;;;;;;15.20;29.21;98144.44;5073142;28;19916;-84
2023/03/28 12:28:57;;;;;;;;;;;;;;;16.05;31.16;98156.66;5045795;28;19920;-83
2023/03/28 12:31:41;;;;;;;;;;;;;;;14.62;33.15;98150.63;5053803;28;19928;-83
2023/03/28 12:34:27;;;;;;;;;;;;;;;14.93;27.68;98134.56;5053550;28;19912;-83
2023/03/28 12:36:57;;;;;;;;;;;;;;;15.49;31.91;98134.59;5053514;28;19966;-83
2023/03/28 12:39:42;;;;;;;;;;;;;;;17.21;26.27;98130.00;5072140;28;19917;-84
2023/03/28 12:42:10;;;;;;;;;;;;;;;17.48;31.63;98104.78;5077544;28;20019;-84
2023/03/28 12:44:50;;;;;;;;;;;;;;;16.98;26.19;98135.00;5077549;28;19985;-84
2023/03/28 12:47:19;;;;;;;;;;;;;;;17.43;25.54;98144.81;5072999;28;20019;-84
2023/03/28 12:49:58;;;;;;;;;;;;;;;18.59;24.18;98128.56;5055707;28;20425;-84
2023/03/28 12:52:27;;;;;;;;;;;;;;;17.03;25.44;98142.97;5028585;28;19932;-83
2023/03/28 12:54:55;;;;;;;;;;;;;;;17.43;24.16;98144.00;5057360;28;20316;-84
2023/03/28 12:57:44;;;;;;;;;;;;;;;14.80;34.57;98169.09;5061546;28;20373;-84
2023/03/28 13:00:28;;;;;;;;;;;;;;;15.05;28.24;98152.91;5040517;28;19920;-84
2023/03/28 13:03:06;;;;;;;;;;;;;;;14.39;27.10;98154.19;5054433;28;19927;-84
2023/03/28 13:05:50;;;;;;;;;;;;;;;14.36;29.97;98176.19;5048417;28;19947;-87
2023/03/28 13:08:35;;;;;;;;;;;;;;;13.13;34.84;98191.75;5047355;28;20491;-84
2023/03/28 13:11:01;;;;;;;;;;;;;;;12.94;34.66;98191.66;5036081;28;19921;-84
2023/03/28 13:13:30;;;;;;;;;;;;;;;12.57;38.25;98236.34;5072053;28;19916;-83
2023/03/28 13:15:59;;;;;;;;;;;;;;;12.68;34.16;98231.91;5068458;28;19925;-85
2023/03/28 13:18:26;;;;;;;;;;;;;;;11.91;39.96;98247.88;5055314;28;19927;-83
2023/03/28 13:20:53;;;;;;;;;;;;;;;12.82;36.72;98241.31;5053819;28;19925;-83
2023/03/28 13:23:27;;;;;;;;;;;;;;;12.95;35.73;98236.53;5056353;28;19921;-83
2023/03/28 13:26:01;;;;;;;;;;;;;;;12.02;37.77;98242.69;5055625;28;20388;-83
2023/03/28 13:28:31;;;;;;;;;;;;;;;12.97;35.79;98243.28;5048063;28;20012;-83
2023/03/28 13:31:03;;;;;;;;;;;;;;;14.44;32.51;98233.19;5053442;28;19921;-83
2023/03/28 13:33:33;;;;;;;;;;;;;;;14.65;31.46;98230.00;5056501;28;20284;-82
2023/03/28 13:35:59;;;;;;;;;;;;;;;15.68;30.11;98228.53;5053216;28;19932;-82
2023/03/28 13:38:25;;;;;;;;;;;;;;;16.21;29.05;98223.69;5052179;28;19929;-84
2023/03/28 13:40:55;;;;;;;;;;;;;;;16.63;28.47;98228.16;5054721;28;19923;-82
2023/03/28 13:43:36;;;;;;;;;;;;;;;15.90;28.67;98218.56;5053743;28;19971;-82
2023/03/28 13:46:12;;;;;;;;;;;;;;;15.96;28.75;98219.03;5054621;28;19979;-84
2023/03/28 13:48:48;;;;;;;;;;;;;;;14.33;34.22;98235.72;5050487;28;20376;-83
2023/03/28 13:51:18;;;;;;;;;;;;;;;15.42;29.76;98233.28;5044512;28;20038;-83
2023/03/28 13:53:47;;;;;;;;;;;;;;;14.46;35.66;98234.41;5032848;28;19970;-83
2023/03/28 13:56:13;;;;;;;;;;;;;;;14.85;33.51;98245.38;5052065;28;19921;-82
2023/03/28 13:58:40;;;;;;;;;;;;;;;16.28;28.59;98232.09;5049072;28;19970;-82
2023/03/28 14:01:12;;;;;;;;;;;;;;;15.29;31.95;98243.72;5055446;28;19921;-82
2023/03/28 14:03:40;;;;;;;;;;;;;;;16.00;29.58;98251.13;5058747;28;19920;-82
2023/03/28 14:06:25;;;;;;;;;;;;;;;11.34;39.94;98272.81;5060541;28;20077;-83
2023/03/28 14:08:53;;;;;;;;;;;;;;;10.13;45.70;98301.97;5064249;28;20395;-83
2023/03/28 14:11:22;;;;;;;;;;;;;;;10.44;41.63;98296.84;5052499;28;20342;-82
2023/03/28 14:13:51;;;;;;;;;;;;;;;10.69;40.12;98314.97;5051051;28;20367;-82
2023/03/28 14:16:18;;;;;;;;;;;;;;;9.29;46.30;98310.44;5053468;28;20402;-82
2023/03/28 14:18:46;;;;;;;;;;;;;;;10.05;42.06;98297.34;5052180;28;19927;-83
2023/03/28 14:21:13;;;;;;;;;;;;;;;10.67;41.91;98310.97;5058409;28;19932;-82
2023/03/28 14:23:42;;;;;;;;;;;;;;;11.37;40.14;98283.13;5052265;28;19921;-84
2023/03/28 14:26:16;;;;;;;;;;;;;;;12.05;33.62;98286.00;5046652;28;20368;-83
2023/03/28 14:28:44;;;;;;;;;;;;;;;13.29;33.56;98287.41;5052130;28;19917;-82
2023/03/28 14:31:26;;;;;;;;;;;;;;;13.47;32.58;98285.84;5045254;28;20387;-82
2023/03/28 14:33:53;;;;;;;;;;;;;;;13.66;33.54;98286.72;5046923;28;19928;-83
2023/03/28 14:36:19;;;;;;;;;;;;;;;14.49;33.70;98286.16;5051009;28;19920;-82
2023/03/28 14:38:45;;;;;;;;;;;;;;;15.39;28.28;98279.06;5065137;28;19916;-82
2023/03/28 14:41:21;;;;;;;;;;;;;;;12.25;35.46;98290.53;5071801;28;19952;-82
2023/03/28 14:43:52;;;;;;;;;;;;;;;11.28;35.26;98304.41;5048139;28;20384;-82
2023/03/28 14:46:21;;;;;;;;;;;;;;;11.63;33.52;98297.31;5035399;28;19963;-82
2023/03/28 14:48:52;;;;;;;;;;;;;;;10.73;37.25;98296.72;5051615;28;19924;-82
2023/03/28 14:51:21;;;;;;;;;;;;;;;11.42;35.87;98279.34;5048107;28;20371;-83
2023/03/28 14:53:48;;;;;;;;;;;;;;;12.34;37.42;98302.19;5054095;28;19967;-83
2023/03/28 14:56:21;;;;;;;;;;;;;;;14.22;30.88;98295.44;5049326;28;19966;-82
2023/03/28 14:58:48;;;;;;;;;;;;;;;14.83;27.96;98289.97;5047995;28;20353;-82
2023/03/28 15:01:21;;;;;;;;;;;;;;;13.47;32.32;98302.41;5052006;28;19916;-83
2023/03/28 15:03:50;;;;;;;;;;;;;;;12.86;30.77;98307.56;5051947;28;19921;-82
2023/03/28 15:06:18;;;;;;;;;;;;;;;12.68;31.27;98301.56;5048119;28;20335;-82
2023/03/28 15:08:45;;;;;;;;;;;;;;;12.92;31.97;98297.88;5052051;28;20015;-82
2023/03/28 15:11:18;;;;;;;;;;;;;;;13.64;30.79;98302.03;5042513;28;19920;-82
2023/03/28 15:13:46;;;;;;;;;;;;;;;13.55;31.87;98309.69;5042452;28;19956;-83
2023/03/28 15:16:22;;;;;;;;;;;;;;;11.94;38.03;98304.16;5054615;28;20384;-81
2023/03/28 15:19:05;;;;;;;;;;;;;;;14.84;26.87;98285.25;5051079;28;20312;-82
2023/03/28 15:21:35;;;;;;;;;;;;;;;15.14;28.79;98288.94;5050707;28;19951;-82
2023/03/28 15:24:02;;;;;;;;;;;;;;;15.59;25.53;98288.13;5048911;28;19921;-81
2023/03/28 15:26:33;;;;;;;;;;;;;;;14.06;26.96;98296.66;5053000;28;19917;-82
2023/03/28 15:28:59;;;;;;;;;;;;;;;14.30;28.87;98305.50;5055652;28;19967;-82
2023/03/28 15:31:26;;;;;;;;;;;;;;;12.42;35.56;98320.50;5050062;28;20011;-83
2023/03/28 15:33:53;;;;;;;;;;;;;;;13.87;29.58;98316.75;5053019;28;19931;-83
2023/03/28 15:36:24;;;;;;;;;;;;;;;12.97;33.56;98295.66;5054189;28;19924;-83
2023/03/28 15:38:57;;;;;;;;;;;;;;;11.86;33.19;98318.81;5053964;28;19916;-82
2023/03/28 15:41:27;;;;;;;;;;;;;;;11.47;35.80;98332.16;5027769;28;19928;-86
2023/03/28 15:43:53;;;;;;;;;;;;;;;11.52;33.04;98344.84;5047197;28;19920;-82
2023/03/28 15:46:20;;;;;;;;;;;;;;;11.71;35.99;98326.66;5057507;28;20008;-82
2023/03/28 15:48:47;;;;;;;;;;;;;;;11.29;38.99;98339.00;5048582;28;19916;-82
2023/03/28 15:51:15;;;;;;;;;;;;;;;13.40;28.16;98329.81;5046135;28;19951;-83
2023/03/28 15:53:43;;;;;;;;;;;;;;;13.14;29.42;98338.59;5050351;28;20323;-83
2023/03/28 15:56:21;;;;;;;;;;;;;;;12.62;33.46;98355.31;5050290;28;20360;-82
2023/03/28 15:58:47;;;;;;;;;;;;;;;13.44;28.87;98352.78;5053780;28;19921;-83
2023/03/28 16:01:24;;;;;;;;;;;;;;;13.70;29.18;98347.47;5045579;28;19917;-82
2023/03/28 16:04:10;;;;;;;;;;;;;;;13.50;31.40;98356.84;5036697;28;19929;-82
2023/03/28 16:06:41;;;;;;;;;;;;;;;14.06;29.46;98357.38;5043682;28;19928;-82
2023/03/28 16:09:18;;;;;;;;;;;;;;;14.41;29.04;98349.91;5039635;28;20380;-84
2023/03/28 16:11:45;;;;;;;;;;;;;;;14.59;28.96;98364.88;5043870;28;19940;-83
2023/03/28 16:14:15;;;;;;;;;;;;;;;13.83;30.25;98366.34;5050802;28;19921;-83
2023/03/28 16:16:41;;;;;;;;;;;;;;;14.53;29.43;98371.88;5044560;28;20349;-83
2023/03/28 16:19:18;;;;;;;;;;;;;;;15.53;27.60;98376.19;5046983;28;20411;-85
2023/03/28 16:21:45;;;;;;;;;;;;;;;15.30;27.37;98369.81;5046316;28;20392;-84
2023/03/28 16:24:11;;;;;;;;;;;;;;;15.74;26.57;98368.22;5044602;28;19928;-83
2023/03/28 16:26:37;;;;;;;;;;;;;;;15.96;27.85;98377.66;5037633;28;19972;-84
2023/03/28 16:29:03;;;;;;;;;;;;;;;15.55;28.03;98381.31;5043521;28;20327;-83
2023/03/28 16:31:29;;;;;;;;;;;;;;;15.34;28.04;98383.69;5044367;28;20441;-83
2023/03/28 16:33:55;;;;;;;;;;;;;;;12.06;32.12;98403.19;5039145;28;19920;-83
2023/03/28 16:36:21;;;;;;;;;;;;;;;11.31;34.27;98404.63;5041543;28;20384;-83
2023/03/28 16:38:47;;;;;;;;;;;;;;;11.19;37.46;98427.38;5048848;28;19927;-83
2023/03/28 16:41:13;;;;;;;;;;;;;;;10.73;38.34;98411.22;5053289;28;19921;-82
2023/03/28 16:43:39;;;;;;;;;;;;;;;10.50;39.33;98407.22;5045312;28;19924;-83
2023/03/28 16:46:06;;;;;;;;;;;;;;;10.91;37.24;98418.13;5042189;28;26719;-83
2023/03/28 16:48:33;;;;;;;;;;;;;;;13.22;31.32;98403.00;5046361;28;19929;-83
2023/03/28 16:51:03;;;;;;;;;;;;;;;13.93;29.71;98409.16;5038030;28;19924;-82
2023/03/28 16:53:39;;;;;;;;;;;;;;;14.33;29.56;98418.00;5042253;28;20019;-82
2023/03/28 16:56:07;;;;;;;;;;;;;;;14.40;28.70;98409.88;5034741;28;19932;-83
2023/03/28 16:58:33;;;;;;;;;;;;;;;14.87;28.51;98417.16;5040871;28;20028;-83
2023/03/28 17:01:07;;;;;;;;;;;;;;;13.59;30.91;98437.47;5034478;28;20625;-82
2023/03/28 17:03:33;;;;;;;;;;;;;;;13.74;29.90;98434.72;5038262;28;20081;-82
2023/03/28 17:06:00;;;;;;;;;;;;;;;14.89;28.00;98426.69;5043120;28;19925;-83
2023/03/28 17:08:26;;;;;;;;;;;;;;;14.38;29.17;98452.81;5016686;28;19990;-83
2023/03/28 17:10:53;;;;;;;;;;;;;;;14.09;29.24;98456.88;5038920;28;20455;-83
2023/03/28 17:13:19;;;;;;;;;;;;;;;14.57;28.53;98455.63;5040559;28;20079;-83
2023/03/28 17:15:45;;;;;;;;;;;;;;;14.65;28.97;98459.34;5037082;28;20346;-83
2023/03/28 17:18:12;;;;;;;;;;;;;;;14.75;28.22;98464.31;5039196;28;19921;-82
2023/03/28 17:20:38;;;;;;;;;;;;;;;12.85;33.54;98472.06;5042241;28;19982;-82
2023/03/28 17:23:04;;;;;;;;;;;;;;;13.31;30.06;98476.13;5051570;28;20369;-81
2023/03/28 17:25:30;;;;;;;;;;;;;;;14.56;28.35;98486.38;5051550;28;20256;-81
2023/03/28 17:27:56;;;;;;;;;;;;;;;12.87;32.27;98499.25;5066553;28;19921;-83
2023/03/28 17:30:22;;;;;;;;;;;;;;;12.87;32.29;98496.50;5048421;28;19917;-82
2023/03/28 17:32:48;;;;;;;;;;;;;;;11.03;38.52;98508.84;5044249;28;20008;-83
2023/03/28 17:35:15;;;;;;;;;;;;;;;13.22;32.52;98499.50;5048463;28;19925;-83
2023/03/28 17:37:41;;;;;;;;;;;;;;;14.49;30.42;98495.31;5046148;28;20011;-84
2023/03/28 17:40:08;;;;;;;;;;;;;;;14.73;28.91;98497.00;5046882;28;19942;-81
2023/03/28 17:42:34;;;;;;;;;;;;;;;15.43;28.59;98501.25;5049022;28;19933;-83
2023/03/28 17:45:00;;;;;;;;;;;;;;;14.41;29.94;98512.88;5049167;28;19925;-83
2023/03/28 17:47:26;;;;;;;;;;;;;;;15.45;28.55;98512.00;5042493;28;19921;-82
2023/03/28 17:49:54;;;;;;;;;;;;;;;15.80;28.19;98518.97;5032788;28;22617;-85
2023/03/28 17:52:20;;;;;;;;;;;;;;;15.69;28.87;98514.41;5047264;28;19929;-86
2023/03/28 17:54:46;;;;;;;;;;;;;;;16.09;27.75;98528.59;5049403;28;19913;-86
2023/03/28 17:57:12;;;;;;;;;;;;;;;16.61;27.52;98543.72;5026049;28;19925;-84
2023/03/28 17:59:38;;;;;;;;;;;;;;;15.51;28.18;98538.19;5048668;28;19920;-84
2023/03/28 18:02:05;;;;;;;;;;;;;;;15.23;29.24;98557.75;5024550;28;20391;-84
2023/03/28 18:04:31;;;;;;;;;;;;;;;14.25;30.86;98559.81;5047664;28;19924;-84
2023/03/28 18:06:57;;;;;;;;;;;;;;;13.66;32.44;98562.59;5048870;28;19912;-84
2023/03/28 18:09:24;;;;;;;;;;;;;;;14.31;30.53;98568.66;5044441;28;20372;-85
2023/03/28 18:11:51;;;;;;;;;;;;;;;14.33;31.37;98569.09;5045776;28;19936;-85
2023/03/28 18:14:17;;;;;;;;;;;;;;;14.60;29.56;98578.44;5029452;28;19920;-86
2023/03/28 18:16:43;;;;;;;;;;;;;;;15.41;28.81;98583.00;5042672;28;20296;-85
2023/03/28 18:19:16;;;;;;;;;;;;;;;15.56;28.78;98583.00;5067668;28;19912;-86
2023/03/28 18:21:43;;;;;;;;;;;;;;;15.06;29.25;98588.59;5049162;28;19924;-86
2023/03/28 18:24:09;;;;;;;;;;;;;;;15.02;29.61;98596.00;5019938;28;19940;-84
2023/03/28 18:26:35;;;;;;;;;;;;;;;15.34;28.41;98599.47;5032966;28;19932;-84
2023/03/28 18:29:02;;;;;;;;;;;;;;;15.67;28.51;98597.03;5035110;28;19928;-84
2023/03/28 18:31:28;;;;;;;;;;;;;;;15.10;29.42;98603.28;5029596;28;20337;-85
2023/03/28 18:33:56;;;;;;;;;;;;;;;14.88;29.68;98606.75;5030637;28;19948;-85
2023/03/28 18:36:22;;;;;;;;;;;;;;;14.53;30.27;98621.31;5038722;28;20304;-85
2023/03/28 18:38:48;;;;;;;;;;;;;;;13.96;31.79;98612.69;5026087;28;20370;-85
2023/03/28 18:41:15;;;;;;;;;;;;;;;14.19;30.54;98615.66;5032054;28;20388;-84
2023/03/28 18:43:42;;;;;;;;;;;;;;;15.20;28.59;98622.91;5024882;28;20307;-85
2023/03/28 18:46:08;;;;;;;;;;;;;;;14.57;28.80;98621.41;5029673;28;19973;-86
2023/03/28 18:48:35;;;;;;;;;;;;;;;14.92;29.29;98622.25;5029565;28;19917;-87
2023/03/28 18:51:02;;;;;;;;;;;;;;;15.10;28.14;98622.66;5027350;28;20407;-85
2023/03/28 18:53:28;;;;;;;;;;;;;;;15.53;27.86;98630.75;5031275;28;19956;-84
2023/03/28 18:55:55;;;;;;;;;;;;;;;14.45;30.76;98632.53;5027981;28;19964;-85
2023/03/28 18:58:22;;;;;;;;;;;;;;;12.62;33.02;98647.25;5024882;28;19987;-86
2023/03/28 19:00:57;;;;;;;;;;;;;;;13.63;29.82;98642.50;5031351;28;20375;-87
2023/03/28 19:03:25;;;;;;;;;;;;;;;13.03;30.63;98641.47;5024603;28;19924;-87
2023/03/28 19:05:55;;;;;;;;;;;;;;;13.98;28.49;98637.97;5029053;28;19932;-85
2023/03/28 19:08:25;;;;;;;;;;;;;;;14.40;27.71;98641.09;5007890;28;19930;-84
2023/03/28 19:10:55;;;;;;;;;;;;;;;14.72;28.11;98641.91;5028623;28;19925;-83
2023/03/28 19:13:21;;;;;;;;;;;;;;;15.47;25.73;98650.78;5023884;28;19925;-85
2023/03/28 19:16:01;;;;;;;;;;;;;;;13.59;28.15;98656.19;5023089;28;19921;-84
2023/03/28 19:18:28;;;;;;;;;;;;;;;15.78;24.66;98654.19;4990339;28;19936;-89
2023/03/28 19:20:54;;;;;;;;;;;;;;;16.21;24.76;98652.28;5029715;28;19932;-84
2023/03/28 19:23:21;;;;;;;;;;;;;;;16.47;23.22;98652.34;5048276;28;19921;-84
2023/03/28 19:25:47;;;;;;;;;;;;;;;16.29;23.46;98656.78;5050047;28;19921;-86
2023/03/28 19:28:14;;;;;;;;;;;;;;;16.81;23.70;98653.34;5055057;28;19948;-86
2023/03/28 19:30:40;;;;;;;;;;;;;;;17.17;22.63;98656.31;5031415;28;19932;-86
2023/03/28 19:33:07;;;;;;;;;;;;;;;17.09;23.25;98662.13;5048839;28;20334;-84
2023/03/28 19:35:33;;;;;;;;;;;;;;;17.02;23.27;98662.81;5049728;28;19928;-83
2023/03/28 19:38:01;;;;;;;;;;;;;;;16.79;23.13;98656.50;5052502;28;19983;-83
2023/03/28 19:40:28;;;;;;;;;;;;;;;16.39;22.82;98670.81;5047793;28;19935;-87
2023/03/28 19:42:57;;;;;;;;;;;;;;;16.38;23.66;98666.44;5052724;28;19927;-85
2023/03/28 19:45:27;;;;;;;;;;;;;;;15.77;24.58;98672.00;5060878;28;20400;-84
2023/03/28 19:47:54;;;;;;;;;;;;;;;16.71;22.45;98654.78;5057346;28;19928;-84
2023/03/28 19:50:20;;;;;;;;;;;;;;;16.19;23.59;98669.28;5045823;28;20307;-84
2023/03/28 19:52:47;;;;;;;;;;;;;;;15.21;24.85;98671.53;5052743;28;19921;-85
2023/03/28 19:55:13;;;;;;;;;;;;;;;15.25;25.43;98671.59;5045068;28;19947;-86
2023/03/28 19:57:39;;;;;;;;;;;;;;;15.67;24.99;98680.88;5016904;28;19925;-85
2023/03/28 20:00:06;;;;;;;;;;;;;;;16.68;22.79;98674.13;5051834;28;19921;-83
2023/03/28 20:02:32;;;;;;;;;;;;;;;16.68;23.57;98672.16;5028296;28;19928;-84
2023/03/28 20:04:58;;;;;;;;;;;;;;;17.15;22.50;98669.75;5045924;28;19948;-84
2023/03/28 20:07:25;;;;;;;;;;;;;;;17.64;21.69;98668.91;5035364;28;19963;-85
2023/03/28 20:09:51;;;;;;;;;;;;;;;17.73;22.39;98669.41;5043371;28;19929;-83
2023/03/28 20:12:17;;;;;;;;;;;;;;;17.55;22.58;98671.16;5048207;28;20272;-83
2023/03/28 20:14:44;;;;;;;;;;;;;;;17.19;23.09;98669.81;5051034;28;20354;-82